Lloyd Neck, New York
Current Conditions -  °F | °C
As of 6:08 PM on Sunday 21 Dec 2014 (Local Time) from KFRG Reporting Station
Overcast Overcast  
Wind Chill: 31°   Ceiling: 800
Heat Index: 36°   Visibility: 7mi
Dew Point: 32°   Wind: 6mph
Humidity: 86%   Direction: 360°N
Pressure: 30.3"   Gusts: NA
Location:  40.8966°N, 73.4362°W
Report Text: KFRG 212308Z 36005KT 7SM OVC008 02/00 A3030 RMK AO2 T00220000
Loading
Personal Weather Stations






























Interactive Weather Map New forecast layout! Learn more

10-Day Weather Forecast

Advertisements
Track Severe Weather on mobile